createdAt,value
2022-12-31T00:00:07.705Z,97777.09
2022-12-31T00:05:11.250Z,97779.69
2022-12-31T00:10:13.773Z,97777.19
2022-12-31T00:15:16.637Z,97783.50
2022-12-31T00:20:19.353Z,97790.28
2022-12-31T00:25:21.879Z,97792.91
2022-12-31T00:30:25.079Z,97808.38
2022-12-31T00:35:31.059Z,97810.56
2022-12-31T00:40:33.526Z,97810.75
2022-12-31T00:45:35.998Z,97805.94
2022-12-31T00:50:38.630Z,97813.56
2022-12-31T00:55:41.116Z,97813.75
2022-12-31T01:00:44.494Z,97835.53
2022-12-31T01:05:47.101Z,97838.09
2022-12-31T01:11:09.574Z,97823.91
2022-12-31T01:16:13.800Z,97841.81
2022-12-31T01:21:16.557Z,97845.38
2022-12-31T01:26:20.089Z,97861.88
2022-12-31T01:31:24.398Z,97873.75
2022-12-31T01:36:32.417Z,97884.59
2022-12-31T01:41:39.499Z,97892.22
2022-12-31T01:46:48.408Z,97887.41
2022-12-31T01:52:08.936Z,97879.06
2022-12-31T01:57:12.321Z,97903.84
2022-12-31T02:02:16.556Z,97901.78
2022-12-31T02:07:19.205Z,97884.75
2022-12-31T02:12:21.998Z,97900.00
2022-12-31T02:17:39.470Z,97898.47
2022-12-31T02:23:14.154Z,97906.97
2022-12-31T02:28:40.840Z,97902.41
2022-12-31T02:33:50.893Z,97914.53
2022-12-31T02:38:55.258Z,97907.63
2022-12-31T02:43:58.290Z,97920.97
2022-12-31T02:49:24.197Z,97911.97
2022-12-31T02:54:37.543Z,97907.69
2022-12-31T03:00:02.578Z,97909.28
2022-12-31T03:05:05.895Z,97906.88
2022-12-31T03:10:09.347Z,97903.50
2022-12-31T03:15:21.920Z,97901.56
2022-12-31T03:20:50.884Z,97896.31
2022-12-31T03:25:55.362Z,97905.16
2022-12-31T03:31:03.050Z,97910.63
2022-12-31T03:36:12.147Z,97926.47
2022-12-31T03:41:14.815Z,97923.78
2022-12-31T03:46:17.256Z,97919.31
2022-12-31T03:51:19.722Z,97922.31
2022-12-31T03:56:22.287Z,97933.47
2022-12-31T04:01:25.861Z,97927.25
2022-12-31T04:06:28.583Z,97944.00
2022-12-31T04:11:31.036Z,97930.06
2022-12-31T04:16:33.693Z,97923.84
2022-12-31T04:21:36.235Z,97933.44
2022-12-31T04:26:38.818Z,97940.47
2022-12-31T04:31:41.429Z,97934.50
2022-12-31T04:36:44.141Z,97936.28
2022-12-31T04:41:46.623Z,97941.00
2022-12-31T04:46:49.117Z,97954.53
2022-12-31T04:51:51.589Z,97954.56
2022-12-31T04:56:54.538Z,97972.03
2022-12-31T05:01:57.675Z,97971.00
2022-12-31T05:07:01.400Z,97966.41
2022-12-31T05:12:04.322Z,97979.63
2022-12-31T05:17:06.747Z,97987.19
2022-12-31T05:22:27.832Z,97993.22
2022-12-31T05:27:31.392Z,97992.78
2022-12-31T05:32:34.985Z,97994.97
2022-12-31T05:37:37.658Z,98008.03
2022-12-31T05:42:40.623Z,97991.50
2022-12-31T05:47:43.593Z,97994.34
2022-12-31T05:52:47.802Z,98022.31
2022-12-31T05:57:50.474Z,98021.91
2022-12-31T06:02:53.132Z,98031.69
2022-12-31T06:07:56.147Z,98044.81
2022-12-31T06:12:58.900Z,98055.91
2022-12-31T06:18:01.381Z,98059.94
2022-12-31T06:23:04.241Z,98055.97
2022-12-31T06:28:06.907Z,98049.00
2022-12-31T06:33:09.491Z,98060.81
2022-12-31T06:38:11.954Z,98066.28
2022-12-31T06:43:14.609Z,98084.09
2022-12-31T06:48:17.759Z,98078.31
2022-12-31T06:53:20.273Z,98060.81
2022-12-31T06:58:23.038Z,98054.25
2022-12-31T07:03:36.011Z,98040.41
2022-12-31T07:08:55.868Z,98056.38
2022-12-31T07:14:10.794Z,98065.78
2022-12-31T07:19:28.451Z,98060.19
2022-12-31T07:24:31.205Z,98068.69
2022-12-31T07:30:09.695Z,98083.09
2022-12-31T07:35:20.946Z,98091.72
2022-12-31T07:40:48.485Z,98092.66
2022-12-31T07:46:05.626Z,98089.47
2022-12-31T07:51:11.824Z,98094.94
2022-12-31T07:56:15.362Z,98092.78
2022-12-31T08:01:44.122Z,98092.84
2022-12-31T08:06:51.585Z,98102.28
2022-12-31T08:11:58.934Z,98112.34
2022-12-31T08:17:01.659Z,98115.72
2022-12-31T08:22:28.587Z,98125.19
2022-12-31T08:27:47.715Z,98118.81
2022-12-31T08:33:04.327Z,98104.53
2022-12-31T08:38:44.742Z,98106.84
2022-12-31T08:44:05.057Z,98115.09
2022-12-31T08:49:10.170Z,98120.44
2022-12-31T08:54:13.350Z,98136.88
2022-12-31T08:59:29.037Z,98161.56
2022-12-31T09:05:09.043Z,98154.00
2022-12-31T09:10:36.032Z,98145.03
2022-12-31T09:15:48.471Z,98153.41
2022-12-31T09:20:51.299Z,98151.38
2022-12-31T09:26:19.542Z,98157.69
2022-12-31T09:31:47.111Z,98148.44
2022-12-31T09:36:52.873Z,98156.34
2022-12-31T09:42:25.663Z,98163.69
2022-12-31T09:47:37.159Z,98175.56
2022-12-31T09:53:00.650Z,98176.81
2022-12-31T09:58:25.156Z,98172.09
2022-12-31T10:03:55.410Z,98162.03
2022-12-31T10:09:28.702Z,98156.38
2022-12-31T10:15:07.103Z,98160.91
2022-12-31T10:20:47.031Z,98162.84
2022-12-31T10:26:17.571Z,98152.09
2022-12-31T10:31:37.540Z,98145.34
2022-12-31T10:37:03.985Z,98145.78
2022-12-31T10:42:25.800Z,98148.97
2022-12-31T10:48:16.243Z,98141.91
2022-12-31T10:53:54.446Z,98128.44
2022-12-31T10:59:14.995Z,98135.13
2022-12-31T11:04:44.940Z,98121.91
2022-12-31T11:10:21.347Z,98113.88
2022-12-31T11:15:48.291Z,98124.06
2022-12-31T11:21:22.810Z,98119.63
2022-12-31T11:26:40.477Z,98106.06
2022-12-31T11:32:02.610Z,98106.47
2022-12-31T11:37:25.319Z,98096.72
2022-12-31T11:42:50.789Z,98093.50
2022-12-31T11:48:30.616Z,98094.94
2022-12-31T11:53:53.803Z,98091.88
2022-12-31T11:58:57.412Z,98083.59
2022-12-31T12:04:01.069Z,98075.78
2022-12-31T12:09:11.983Z,98071.22
2022-12-31T12:14:39.613Z,98065.97
2022-12-31T12:19:45.549Z,98069.44
2022-12-31T12:25:03.724Z,98067.66
2022-12-31T12:30:27.392Z,98062.06
2022-12-31T12:35:33.725Z,98057.44
2022-12-31T12:40:37.503Z,98054.22
2022-12-31T12:45:51.453Z,98047.59
2022-12-31T12:50:55.114Z,98051.28
2022-12-31T12:56:19.682Z,98045.03
2022-12-31T13:01:42.991Z,98052.81
2022-12-31T13:06:58.877Z,98050.03
2022-12-31T13:13:13.653Z,98037.88
2022-12-31T13:18:17.031Z,98045.28
2022-12-31T13:23:58.875Z,98039.34
2022-12-31T13:29:04.241Z,98038.09
2022-12-31T13:34:31.843Z,98035.56
2022-12-31T13:39:41.992Z,98028.03
2022-12-31T13:45:09.244Z,98017.41
2022-12-31T13:50:36.529Z,98013.53
2022-12-31T13:56:16.905Z,98011.94
2022-12-31T14:01:33.648Z,98016.59
2022-12-31T14:07:02.823Z,98023.22
2022-12-31T14:12:32.665Z,98019.38
2022-12-31T14:17:53.870Z,98012.28
2022-12-31T14:23:09.759Z,98015.91
2022-12-31T14:28:27.306Z,98009.09
2022-12-31T14:34:00.271Z,98026.75
2022-12-31T14:39:38.990Z,98028.53
2022-12-31T14:45:06.780Z,98039.41
2022-12-31T14:50:14.213Z,98034.88
2022-12-31T14:55:35.479Z,98051.09
2022-12-31T15:00:40.317Z,98054.59
2022-12-31T15:06:17.751Z,98053.63
2022-12-31T15:11:43.008Z,98062.88
2022-12-31T15:17:06.668Z,98061.44
2022-12-31T15:22:33.214Z,98047.47
2022-12-31T15:27:38.535Z,98055.16
2022-12-31T15:32:46.188Z,98057.03
2022-12-31T15:38:11.558Z,98061.31
2022-12-31T15:43:28.234Z,98064.72
2022-12-31T15:48:52.117Z,98061.09
2022-12-31T15:53:57.590Z,98074.97
2022-12-31T15:59:03.954Z,98071.84
2022-12-31T16:04:20.025Z,98082.81
2022-12-31T16:09:26.665Z,98079.19
2022-12-31T16:14:40.826Z,98083.75
2022-12-31T16:19:46.366Z,98090.19
2022-12-31T16:30:27.660Z,98093.88
2022-12-31T16:35:36.406Z,98098.47
2022-12-31T16:40:40.590Z,98103.94
2022-12-31T16:45:43.992Z,98086.56
2022-12-31T16:50:51.699Z,98090.97
2022-12-31T16:55:57.302Z,98093.06
2022-12-31T17:01:12.248Z,98082.22
2022-12-31T17:06:20.099Z,98084.31
2022-12-31T17:11:33.163Z,98094.38
2022-12-31T17:16:39.335Z,98098.25
2022-12-31T17:21:48.635Z,98110.25
2022-12-31T17:26:52.472Z,98103.94
2022-12-31T17:32:08.018Z,98107.38
2022-12-31T17:37:18.191Z,98115.22
2022-12-31T17:42:37.547Z,98112.44
2022-12-31T17:47:45.632Z,98118.84
2022-12-31T17:52:48.728Z,98135.69
2022-12-31T17:57:57.666Z,98131.31
2022-12-31T18:03:00.832Z,98127.91
2022-12-31T18:08:03.531Z,98133.72
2022-12-31T18:13:12.623Z,98123.97
2022-12-31T18:18:29.751Z,98117.88
2022-12-31T18:29:02.479Z,98127.63
2022-12-31T18:34:05.077Z,98137.66
2022-12-31T18:39:08.545Z,98141.00
2022-12-31T18:44:14.357Z,98146.03
2022-12-31T18:49:17.627Z,98143.84
2022-12-31T18:54:21.143Z,98149.03
2022-12-31T18:59:28.351Z,98155.25
2022-12-31T19:04:35.024Z,98159.97
2022-12-31T19:09:49.098Z,98153.09
2022-12-31T19:14:56.015Z,98160.13
2022-12-31T19:20:04.960Z,98159.47
2022-12-31T19:25:38.265Z,98160.56
2022-12-31T19:30:42.467Z,98157.81
2022-12-31T19:35:47.148Z,98166.63
2022-12-31T19:40:52.630Z,98171.47
2022-12-31T19:45:58.762Z,98176.81
2022-12-31T19:51:02.253Z,98173.81
2022-12-31T19:56:06.406Z,98170.44
2022-12-31T20:01:20.545Z,98171.63
2022-12-31T20:06:25.004Z,98176.91
2022-12-31T20:11:32.117Z,98177.63
2022-12-31T20:16:36.685Z,98184.75
2022-12-31T20:21:42.336Z,98190.00
2022-12-31T20:26:46.691Z,98191.59
2022-12-31T20:31:51.312Z,98187.72
2022-12-31T20:36:56.171Z,98186.31
2022-12-31T20:42:05.878Z,98179.59
2022-12-31T20:47:10.121Z,98174.34
2022-12-31T20:52:15.274Z,98180.41
2022-12-31T20:57:28.848Z,98179.75
2022-12-31T21:02:42.563Z,98187.47
2022-12-31T21:07:47.133Z,98189.47
2022-12-31T21:12:53.979Z,98191.16
2022-12-31T21:18:01.628Z,98200.75
2022-12-31T21:23:06.800Z,98196.84
2022-12-31T21:28:10.984Z,98205.19
2022-12-31T21:33:15.253Z,98199.63
2022-12-31T21:38:19.353Z,98202.13
2022-12-31T21:43:24.593Z,98206.69
2022-12-31T21:48:29.788Z,98214.34
2022-12-31T21:53:37.150Z,98218.94
2022-12-31T21:58:44.456Z,98217.84
2022-12-31T22:03:48.500Z,98232.03
2022-12-31T22:08:57.226Z,98233.69
2022-12-31T22:14:01.538Z,98236.44
2022-12-31T22:19:05.533Z,98240.38
2022-12-31T22:24:12.210Z,98240.63
2022-12-31T22:29:16.659Z,98246.31
2022-12-31T22:34:20.723Z,98245.66
2022-12-31T22:39:44.472Z,98255.41
2022-12-31T22:44:49.384Z,98255.84
2022-12-31T22:49:53.763Z,98262.94
2022-12-31T22:55:00.779Z,98257.16
2022-12-31T23:00:12.281Z,98267.53
2022-12-31T23:05:21.168Z,98281.53
2022-12-31T23:10:43.814Z,98279.13
2022-12-31T23:16:06.382Z,98275.28
2022-12-31T23:21:31.364Z,98280.66
2022-12-31T23:31:55.436Z,98285.25
2022-12-31T23:36:57.896Z,98275.06
2022-12-31T23:42:01.213Z,98277.94
2022-12-31T23:47:03.847Z,98279.22
2022-12-31T23:52:06.283Z,98278.13
2022-12-31T23:57:08.895Z,98280.88
